Time;durP1;ratioP1;P1;durP2;ratioP2;P2;SDS_P1;SDS_P2;PMS_P1;PMS_P2;Temp;Humidity;BMP_temperature;BMP_pressure;BME280_temperature;BME280_humidity;BME280_pressure;Samples;Min_cycle;Max_cycle;Signal;HPM_P1;HPM_P2
2021/01/01 00:01:07;;;;;;;;;;;18.70;39.30;;;;;;491687;240;1051;-53
2021/01/01 00:03:09;;;;;;;;;;;18.70;39.30;;;;;;491629;240;1176;-53
2021/01/01 00:05:15;;;;;;;;;;;18.70;39.20;;;;;;491696;241;2131;-53
2021/01/01 00:07:11;;;;;;;;;;;18.70;39.20;;;;;;491648;241;1389;-53
2021/01/01 00:09:12;;;;;;;;;;;18.70;39.20;;;;;;491630;240;1103;-53
2021/01/01 00:11:13;;;;;;;;;;;18.70;39.10;;;;;;491749;240;1383;-53
2021/01/01 00:13:14;;;;;;;;;;;18.70;37.80;;;;;;491687;240;2132;-53
2021/01/01 00:15:16;;;;;;;;;;;18.70;39.10;;;;;;491633;240;1202;-53
2021/01/01 00:17:17;;;;;;;;;;;18.80;39.10;;;;;;491676;240;1265;-53
2021/01/01 00:19:18;;;;;;;;;;;18.80;39.10;;;;;;491826;240;1148;-53
2021/01/01 00:21:20;;;;;;;;;;;18.80;39.00;;;;;;491665;240;1192;-53
2021/01/01 00:23:21;;;;;;;;;;;18.80;39.00;;;;;;491643;240;1115;-53
2021/01/01 00:25:22;;;;;;;;;;;18.80;39.00;;;;;;491564;240;1200;-53
2021/01/01 00:27:23;;;;;;;;;;;18.90;39.00;;;;;;491679;240;1154;-53
2021/01/01 00:29:25;;;;;;;;;;;18.90;39.00;;;;;;491662;240;1275;-53
2021/01/01 00:31:26;;;;;;;;;;;18.90;37.60;;;;;;491670;240;972;-53
2021/01/01 00:33:27;;;;;;;;;;;18.90;39.00;;;;;;491685;240;2125;-53
2021/01/01 00:35:29;;;;;;;;;;;18.90;38.90;;;;;;491679;240;1045;-53
2021/01/01 00:37:30;;;;;;;;;;;18.90;38.90;;;;;;491627;240;1207;-54
2021/01/01 00:39:31;;;;;;;;;;;18.90;38.80;;;;;;491743;240;1108;-53
2021/01/01 00:41:34;;;;;;;;;;;18.90;38.80;;;;;;491609;240;1041;-53
2021/01/01 00:43:35;;;;;;;;;;;18.90;38.80;;;;;;491608;240;1178;-53
2021/01/01 00:45:36;;;;;;;;;;;19.00;38.90;;;;;;491649;240;970;-53
2021/01/01 00:47:38;;;;;;;;;;;19.00;38.80;;;;;;491771;240;1310;-53
2021/01/01 00:49:39;;;;;;;;;;;19.00;38.80;;;;;;491881;240;1036;-53
2021/01/01 00:51:40;;;;;;;;;;;19.00;38.80;;;;;;491671;240;2203;-53
2021/01/01 00:53:41;;;;;;;;;;;19.00;38.80;;;;;;491872;240;1197;-53
2021/01/01 00:55:43;;;;;;;;;;;19.00;38.80;;;;;;491632;240;1093;-53
2021/01/01 00:57:44;;;;;;;;;;;19.00;38.70;;;;;;491739;240;1195;-53
2021/01/01 00:59:45;;;;;;;;;;;19.00;38.70;;;;;;491664;240;1135;-53
2021/01/01 01:01:47;;;;;;;;;;;19.00;38.70;;;;;;491616;240;1132;-53
2021/01/01 01:03:48;;;;;;;;;;;19.00;38.70;;;;;;491750;240;1130;-53
2021/01/01 01:05:49;;;;;;;;;;;19.10;38.70;;;;;;491610;240;1190;-54
2021/01/01 01:07:50;;;;;;;;;;;19.10;38.70;;;;;;491619;240;1213;-53
2021/01/01 01:09:52;;;;;;;;;;;19.10;38.70;;;;;;491668;240;1144;-53
2021/01/01 01:11:53;;;;;;;;;;;19.10;38.60;;;;;;491681;240;2172;-53
2021/01/01 01:13:54;;;;;;;;;;;19.10;38.60;;;;;;491711;240;1171;-53
2021/01/01 01:15:56;;;;;;;;;;;19.10;38.60;;;;;;491644;240;1253;-53
2021/01/01 01:17:57;;;;;;;;;;;19.10;38.60;;;;;;491675;240;1006;-53
2021/01/01 01:19:58;;;;;;;;;;;19.10;38.50;;;;;;491667;240;1050;-53
2021/01/01 01:21:59;;;;;;;;;;;19.20;38.60;;;;;;491632;240;1050;-53
2021/01/01 01:24:01;;;;;;;;;;;19.20;38.60;;;;;;491725;240;1022;-53
2021/01/01 01:26:02;;;;;;;;;;;19.20;38.60;;;;;;491664;240;1089;-53
2021/01/01 01:28:03;;;;;;;;;;;19.20;38.50;;;;;;491646;240;980;-53
2021/01/01 01:30:04;;;;;;;;;;;19.20;38.50;;;;;;491606;240;1237;-53
2021/01/01 01:32:06;;;;;;;;;;;19.20;38.50;;;;;;491553;240;2176;-52
2021/01/01 01:34:07;;;;;;;;;;;19.20;38.50;;;;;;491747;240;1056;-53
2021/01/01 01:36:08;;;;;;;;;;;19.20;38.50;;;;;;491646;240;1316;-53
2021/01/01 01:38:10;;;;;;;;;;;19.20;38.50;;;;;;491723;240;1188;-53
2021/01/01 01:40:11;;;;;;;;;;;19.20;38.40;;;;;;491617;240;1307;-53
2021/01/01 01:42:12;;;;;;;;;;;19.20;38.40;;;;;;491814;240;1673;-53
2021/01/01 01:44:13;;;;;;;;;;;19.30;38.50;;;;;;491661;240;1118;-53
2021/01/01 01:46:15;;;;;;;;;;;19.30;38.50;;;;;;491654;240;1320;-53
2021/01/01 01:48:16;;;;;;;;;;;19.30;38.50;;;;;;491991;240;1207;-53
2021/01/01 01:50:17;;;;;;;;;;;19.30;38.40;;;;;;491938;240;1060;-53
2021/01/01 01:52:19;;;;;;;;;;;19.30;38.40;;;;;;491872;240;2176;-53
2021/01/01 01:54:20;;;;;;;;;;;19.30;38.40;;;;;;491786;240;1011;-53
2021/01/01 01:56:21;;;;;;;;;;;19.30;38.40;;;;;;491566;240;1284;-53
2021/01/01 01:58:22;;;;;;;;;;;19.30;38.40;;;;;;491730;240;1186;-53
2021/01/01 02:00:41;;;;;;;;;;;19.30;38.30;;;;;;491654;240;1177;-53
2021/01/01 02:02:33;;;;;;;;;;;19.30;38.40;;;;;;491585;241;2165;-53
2021/01/01 02:04:34;;;;;;;;;;;19.30;38.40;;;;;;491715;240;945;-53
2021/01/01 02:06:36;;;;;;;;;;;19.40;38.40;;;;;;491613;240;1254;-53
2021/01/01 02:08:36;;;;;;;;;;;19.30;38.30;;;;;;491631;240;2741;-53
2021/01/01 02:10:38;;;;;;;;;;;19.40;38.30;;;;;;491948;240;1158;-53
2021/01/01 02:12:39;;;;;;;;;;;19.30;38.30;;;;;;491614;240;2124;-53
2021/01/01 02:14:40;;;;;;;;;;;19.40;38.30;;;;;;491820;240;1126;-53
2021/01/01 02:16:42;;;;;;;;;;;19.40;38.30;;;;;;491697;238;1478;-53
2021/01/01 02:18:43;;;;;;;;;;;19.40;38.40;;;;;;491632;240;2287;-53
2021/01/01 02:20:45;;;;;;;;;;;19.40;38.30;;;;;;492002;240;1198;-53
2021/01/01 02:22:46;;;;;;;;;;;19.40;38.30;;;;;;491640;240;1223;-53
2021/01/01 02:24:47;;;;;;;;;;;19.40;38.30;;;;;;491714;240;1211;-53
2021/01/01 02:26:48;;;;;;;;;;;19.40;38.20;;;;;;491711;240;1076;-53
2021/01/01 02:28:50;;;;;;;;;;;19.40;38.30;;;;;;491643;240;1175;-53
2021/01/01 02:30:51;;;;;;;;;;;19.40;38.20;;;;;;491617;240;1092;-53
2021/01/01 02:32:53;;;;;;;;;;;19.40;38.20;;;;;;491605;240;2132;-53
2021/01/01 02:34:54;;;;;;;;;;;19.40;38.20;;;;;;491673;240;1059;-53
2021/01/01 02:36:55;;;;;;;;;;;19.40;38.20;;;;;;491621;240;1011;-53
2021/01/01 02:38:56;;;;;;;;;;;19.40;38.10;;;;;;491630;239;1313;-53
2021/01/01 02:40:58;;;;;;;;;;;19.40;38.20;;;;;;491631;240;1204;-53
2021/01/01 02:42:59;;;;;;;;;;;19.40;38.20;;;;;;491756;240;1065;-53
2021/01/01 02:45:00;;;;;;;;;;;19.40;38.20;;;;;;491868;240;1132;-53
2021/01/01 02:47:01;;;;;;;;;;;19.40;38.10;;;;;;491584;240;1131;-53
2021/01/01 02:49:03;;;;;;;;;;;19.50;38.20;;;;;;491689;240;1078;-53
2021/01/01 02:51:04;;;;;;;;;;;19.50;38.20;;;;;;491698;240;1263;-53
2021/01/01 02:53:05;;;;;;;;;;;19.50;38.20;;;;;;491786;240;2136;-53
2021/01/01 02:55:07;;;;;;;;;;;19.50;38.20;;;;;;491970;240;1295;-53
2021/01/01 02:57:08;;;;;;;;;;;19.50;38.20;;;;;;491626;240;1196;-53
2021/01/01 02:59:09;;;;;;;;;;;19.50;38.20;;;;;;491678;240;1194;-53
2021/01/01 03:01:10;;;;;;;;;;;19.50;38.20;;;;;;491912;240;1224;-52
2021/01/01 03:03:12;;;;;;;;;;;19.50;38.20;;;;;;491744;240;985;-53
2021/01/01 03:05:13;;;;;;;;;;;19.50;38.10;;;;;;491784;240;1033;-53
2021/01/01 03:07:14;;;;;;;;;;;19.50;38.10;;;;;;491686;240;966;-53
2021/01/01 03:09:17;;;;;;;;;;;19.50;38.10;;;;;;491928;240;1080;-53
2021/01/01 03:11:19;;;;;;;;;;;19.50;38.10;;;;;;491593;240;1322;-53
2021/01/01 03:13:20;;;;;;;;;;;19.50;38.10;;;;;;491686;240;2148;-53
2021/01/01 03:15:21;;;;;;;;;;;19.50;38.00;;;;;;491773;240;1201;-53
2021/01/01 03:17:22;;;;;;;;;;;19.50;38.10;;;;;;491614;240;1174;-53
2021/01/01 03:19:24;;;;;;;;;;;19.50;38.00;;;;;;491825;240;1037;-53
2021/01/01 03:21:25;;;;;;;;;;;19.60;38.10;;;;;;491586;240;1145;-53
2021/01/01 03:23:26;;;;;;;;;;;19.60;38.10;;;;;;491654;240;1049;-53
2021/01/01 03:25:28;;;;;;;;;;;19.60;38.10;;;;;;491618;240;1216;-53
2021/01/01 03:27:29;;;;;;;;;;;19.50;38.00;;;;;;491605;240;1158;-53
2021/01/01 03:29:30;;;;;;;;;;;19.60;38.10;;;;;;491672;240;1175;-52
2021/01/01 03:31:31;;;;;;;;;;;19.50;38.00;;;;;;491680;240;1133;-53
2021/01/01 03:33:33;;;;;;;;;;;19.60;38.10;;;;;;491705;240;2136;-53
2021/01/01 03:35:34;;;;;;;;;;;19.60;38.10;;;;;;491692;240;1070;-53
2021/01/01 03:37:36;;;;;;;;;;;19.50;38.00;;;;;;491641;240;1054;-53
2021/01/01 03:39:37;;;;;;;;;;;19.60;38.10;;;;;;491675;240;984;-53
2021/01/01 03:41:38;;;;;;;;;;;19.60;38.10;;;;;;491803;240;1055;-53
2021/01/01 03:43:39;;;;;;;;;;;19.60;38.00;;;;;;491787;240;1088;-53
2021/01/01 03:45:41;;;;;;;;;;;19.60;36.70;;;;;;491624;240;1123;-53
2021/01/01 03:47:42;;;;;;;;;;;19.60;38.00;;;;;;491678;240;1379;-53
2021/01/01 03:49:43;;;;;;;;;;;19.60;38.00;;;;;;492010;240;1083;-53
2021/01/01 03:51:45;;;;;;;;;;;19.60;38.00;;;;;;491853;240;1054;-53
2021/01/01 03:53:46;;;;;;;;;;;19.60;38.00;;;;;;491702;240;2137;-53
2021/01/01 03:55:47;;;;;;;;;;;19.60;38.00;;;;;;491880;240;1126;-53
2021/01/01 03:57:48;;;;;;;;;;;19.60;38.00;;;;;;491601;240;1245;-53
2021/01/01 03:59:50;;;;;;;;;;;19.60;38.00;;;;;;491992;240;1085;-53
2021/01/01 04:01:51;;;;;;;;;;;19.60;37.90;;;;;;491556;240;1323;-53
2021/01/01 04:03:52;;;;;;;;;;;19.60;38.00;;;;;;491734;240;1166;-53
2021/01/01 04:05:53;;;;;;;;;;;19.60;37.90;;;;;;491599;240;1124;-52
2021/01/01 04:07:55;;;;;;;;;;;19.60;37.90;;;;;;491657;240;1214;-53
2021/01/01 04:09:56;;;;;;;;;;;19.60;37.90;;;;;;491932;240;1008;-53
2021/01/01 04:11:57;;;;;;;;;;;19.70;37.90;;;;;;491628;240;1300;-53
2021/01/01 04:13:58;;;;;;;;;;;19.70;37.90;;;;;;491642;240;2179;-53
2021/01/01 04:16:00;;;;;;;;;;;19.70;38.00;;;;;;491865;240;1147;-53
2021/01/01 04:18:01;;;;;;;;;;;19.70;37.90;;;;;;491594;240;1189;-53
2021/01/01 04:20:02;;;;;;;;;;;19.70;37.90;;;;;;491614;240;1257;-53
2021/01/01 04:22:04;;;;;;;;;;;19.70;37.90;;;;;;491777;240;1313;-53
2021/01/01 04:24:05;;;;;;;;;;;19.70;37.90;;;;;;491709;240;1031;-53
2021/01/01 04:26:06;;;;;;;;;;;19.70;37.90;;;;;;491682;240;1180;-53
2021/01/01 04:28:07;;;;;;;;;;;19.70;37.90;;;;;;491676;240;1076;-53
2021/01/01 04:30:09;;;;;;;;;;;19.70;37.80;;;;;;491662;240;1114;-53
2021/01/01 04:32:10;;;;;;;;;;;19.70;36.50;;;;;;491693;240;1198;-53
2021/01/01 04:34:11;;;;;;;;;;;19.70;37.80;;;;;;491770;240;2184;-53
2021/01/01 04:36:13;;;;;;;;;;;19.70;37.90;;;;;;491678;240;996;-53
2021/01/01 04:38:14;;;;;;;;;;;19.70;37.90;;;;;;491676;240;1056;-53
2021/01/01 04:40:15;;;;;;;;;;;19.70;37.80;;;;;;491757;240;1338;-53
2021/01/01 04:42:16;;;;;;;;;;;19.70;37.80;;;;;;491730;240;1215;-53
2021/01/01 04:44:18;;;;;;;;;;;19.70;37.80;;;;;;491630;240;1331;-53
2021/01/01 04:46:19;;;;;;;;;;;19.70;37.80;;;;;;491601;240;1200;-53
2021/01/01 04:48:20;;;;;;;;;;;19.70;37.80;;;;;;491717;240;988;-53
2021/01/01 04:50:21;;;;;;;;;;;19.80;37.90;;;;;;491841;240;1157;-53
2021/01/01 04:52:23;;;;;;;;;;;19.80;37.90;;;;;;491638;240;1076;-53
2021/01/01 04:54:24;;;;;;;;;;;19.70;36.50;;;;;;491681;240;2124;-53
2021/01/01 04:56:25;;;;;;;;;;;19.80;37.80;;;;;;491642;240;1166;-53
2021/01/01 04:58:27;;;;;;;;;;;19.70;37.80;;;;;;491727;240;997;-53
2021/01/01 05:00:28;;;;;;;;;;;19.70;37.80;;;;;;491796;240;1095;-53
2021/01/01 05:02:29;;;;;;;;;;;19.80;37.80;;;;;;491705;240;1185;-53
2021/01/01 05:04:30;;;;;;;;;;;19.80;37.80;;;;;;491755;240;1159;-53
2021/01/01 05:06:32;;;;;;;;;;;19.80;37.80;;;;;;491657;240;1095;-53
2021/01/01 05:08:33;;;;;;;;;;;19.70;37.70;;;;;;491663;240;1161;-53
2021/01/01 05:10:34;;;;;;;;;;;19.80;37.80;;;;;;491743;240;1193;-53
2021/01/01 05:12:36;;;;;;;;;;;19.80;37.80;;;;;;491683;240;1463;-53
2021/01/01 05:14:37;;;;;;;;;;;19.80;37.80;;;;;;491853;240;2148;-53
2021/01/01 05:16:38;;;;;;;;;;;19.80;37.80;;;;;;491679;240;1119;-53
2021/01/01 05:18:39;;;;;;;;;;;19.80;37.80;;;;;;491800;240;1186;-53
2021/01/01 05:20:41;;;;;;;;;;;19.80;37.80;;;;;;491899;240;1193;-53
2021/01/01 05:22:42;;;;;;;;;;;19.80;37.80;;;;;;491901;240;1024;-53
2021/01/01 05:24:43;;;;;;;;;;;19.80;37.80;;;;;;491736;240;1399;-53
2021/01/01 05:26:44;;;;;;;;;;;19.80;37.80;;;;;;491600;240;1170;-53
2021/01/01 05:28:46;;;;;;;;;;;19.80;37.80;;;;;;491634;240;1081;-53
2021/01/01 05:30:47;;;;;;;;;;;19.80;37.80;;;;;;491670;240;1073;-53
2021/01/01 05:32:48;;;;;;;;;;;19.80;37.80;;;;;;491649;240;1163;-53
2021/01/01 05:34:50;;;;;;;;;;;19.80;37.70;;;;;;491907;240;2132;-53
2021/01/01 05:36:51;;;;;;;;;;;19.80;37.70;;;;;;491688;240;1184;-53
2021/01/01 05:38:52;;;;;;;;;;;19.80;37.80;;;;;;491654;240;1058;-53
2021/01/01 05:40:53;;;;;;;;;;;19.80;37.70;;;;;;491664;240;962;-53
2021/01/01 05:42:55;;;;;;;;;;;19.80;37.70;;;;;;491655;240;1096;-53
2021/01/01 05:44:56;;;;;;;;;;;19.80;37.80;;;;;;491731;240;967;-53
2021/01/01 05:46:57;;;;;;;;;;;19.90;37.80;;;;;;491656;240;1342;-53
2021/01/01 05:48:58;;;;;;;;;;;19.80;37.70;;;;;;491681;240;1066;-53
2021/01/01 05:51:00;;;;;;;;;;;19.80;37.70;;;;;;491685;240;1055;-53
2021/01/01 05:53:01;;;;;;;;;;;19.80;37.70;;;;;;491933;240;1082;-53
2021/01/01 05:55:02;;;;;;;;;;;19.80;37.70;;;;;;491685;240;2120;-53
2021/01/01 05:57:04;;;;;;;;;;;19.80;37.70;;;;;;491655;240;1089;-53
2021/01/01 05:59:05;;;;;;;;;;;19.90;37.70;;;;;;491637;240;1071;-53
2021/01/01 06:01:06;;;;;;;;;;;19.90;37.70;;;;;;491691;240;1068;-53
2021/01/01 06:03:07;;;;;;;;;;;19.90;37.70;;;;;;491714;240;1194;-53
2021/01/01 06:05:09;;;;;;;;;;;19.80;37.70;;;;;;491839;240;1048;-52
2021/01/01 06:07:10;;;;;;;;;;;19.90;37.70;;;;;;491703;240;1072;-53
2021/01/01 06:09:11;;;;;;;;;;;19.90;37.70;;;;;;491675;240;1074;-53
2021/01/01 06:11:12;;;;;;;;;;;19.90;37.70;;;;;;491617;240;1243;-53
2021/01/01 06:13:14;;;;;;;;;;;19.90;37.60;;;;;;491688;240;1316;-53
2021/01/01 06:15:15;;;;;;;;;;;19.90;37.70;;;;;;491705;240;2125;-53
2021/01/01 06:17:16;;;;;;;;;;;19.90;37.70;;;;;;491670;240;1194;-52
2021/01/01 06:19:18;;;;;;;;;;;19.90;37.70;;;;;;491973;240;1068;-53
2021/01/01 06:21:19;;;;;;;;;;;19.90;37.70;;;;;;491619;240;1208;-53
2021/01/01 06:23:20;;;;;;;;;;;19.90;37.60;;;;;;491690;240;1061;-53
2021/01/01 06:25:21;;;;;;;;;;;19.90;37.60;;;;;;491634;240;1330;-53
2021/01/01 06:27:23;;;;;;;;;;;19.90;37.70;;;;;;491652;240;1100;-53
2021/01/01 06:29:24;;;;;;;;;;;19.90;37.60;;;;;;491799;240;1287;-53
2021/01/01 06:31:25;;;;;;;;;;;19.90;37.70;;;;;;491639;240;1238;-53
2021/01/01 06:33:27;;;;;;;;;;;19.90;37.60;;;;;;491663;240;1215;-53
2021/01/01 06:35:28;;;;;;;;;;;19.90;37.60;;;;;;491757;240;2188;-53
2021/01/01 06:37:29;;;;;;;;;;;19.90;37.60;;;;;;491644;240;1108;-53
2021/01/01 06:39:30;;;;;;;;;;;19.90;37.60;;;;;;491886;240;1068;-53
2021/01/01 06:41:32;;;;;;;;;;;19.90;37.60;;;;;;491660;240;938;-53
2021/01/01 06:43:33;;;;;;;;;;;19.90;37.60;;;;;;491809;240;1186;-53
2021/01/01 06:45:36;;;;;;;;;;;19.90;37.60;;;;;;491702;240;1131;-53
2021/01/01 06:47:37;;;;;;;;;;;19.90;37.60;;;;;;491714;240;1173;-53
2021/01/01 06:49:38;;;;;;;;;;;19.90;37.60;;;;;;491729;240;1032;-53
2021/01/01 06:51:40;;;;;;;;;;;19.90;37.60;;;;;;491611;240;1343;-53
2021/01/01 06:53:41;;;;;;;;;;;19.90;37.60;;;;;;491930;240;2128;-53
2021/01/01 06:55:42;;;;;;;;;;;19.90;37.60;;;;;;491690;240;1031;-54
2021/01/01 06:57:43;;;;;;;;;;;19.90;37.60;;;;;;491684;240;1391;-53
2021/01/01 06:59:45;;;;;;;;;;;19.90;37.60;;;;;;491650;240;1018;-53
2021/01/01 07:01:47;;;;;;;;;;;19.90;37.60;;;;;;491612;240;1123;-53
2021/01/01 07:03:47;;;;;;;;;;;19.90;37.60;;;;;;491651;240;2419;-53
2021/01/01 07:05:48;;;;;;;;;;;19.90;37.60;;;;;;491829;240;1068;-53
2021/01/01 07:07:50;;;;;;;;;;;19.90;37.60;;;;;;491856;240;1099;-53
2021/01/01 07:09:51;;;;;;;;;;;20.00;38.10;;;;;;491723;240;1213;-53
2021/01/01 07:11:52;;;;;;;;;;;20.00;37.70;;;;;;491664;240;1094;-53
2021/01/01 07:13:54;;;;;;;;;;;20.00;37.50;;;;;;491628;240;2203;-53
2021/01/01 07:15:55;;;;;;;;;;;20.00;37.50;;;;;;491718;240;1074;-53
2021/01/01 07:17:56;;;;;;;;;;;20.00;37.60;;;;;;491622;238;1292;-53
2021/01/01 07:19:57;;;;;;;;;;;19.90;37.70;;;;;;491754;240;1099;-53
2021/01/01 07:21:59;;;;;;;;;;;19.90;37.80;;;;;;491746;240;1177;-53
2021/01/01 07:24:00;;;;;;;;;;;19.80;37.90;;;;;;491626;240;1024;-53
2021/01/01 07:26:02;;;;;;;;;;;19.70;37.90;;;;;;491595;240;1214;-53
2021/01/01 07:28:03;;;;;;;;;;;19.70;38.10;;;;;;491663;240;2262;-53
2021/01/01 07:30:04;;;;;;;;;;;19.60;38.20;;;;;;491867;240;1195;-53
2021/01/01 07:32:05;;;;;;;;;;;19.60;38.30;;;;;;491751;240;1321;-53
2021/01/01 07:34:06;;;;;;;;;;;19.50;38.30;;;;;;491709;240;2153;-53
2021/01/01 07:36:08;;;;;;;;;;;19.50;38.40;;;;;;491607;240;1197;-53
2021/01/01 07:38:09;;;;;;;;;;;19.40;38.50;;;;;;491758;240;1310;-53
2021/01/01 07:40:10;;;;;;;;;;;19.40;38.50;;;;;;491694;240;1097;-53
2021/01/01 07:42:11;;;;;;;;;;;19.40;38.60;;;;;;491964;240;1333;-53
2021/01/01 07:44:13;;;;;;;;;;;19.30;38.70;;;;;;491832;240;1159;-52
2021/01/01 07:46:14;;;;;;;;;;;19.30;38.80;;;;;;491669;240;1207;-53
2021/01/01 07:48:15;;;;;;;;;;;19.20;38.80;;;;;;491678;239;1292;-53
2021/01/01 07:50:17;;;;;;;;;;;19.20;38.90;;;;;;491745;240;1185;-52
2021/01/01 07:52:18;;;;;;;;;;;19.20;39.00;;;;;;491619;240;1075;-53
2021/01/01 07:54:19;;;;;;;;;;;19.10;39.00;;;;;;491717;240;2140;-53
2021/01/01 07:56:20;;;;;;;;;;;19.10;39.00;;;;;;491641;240;1049;-52
2021/01/01 07:58:22;;;;;;;;;;;19.00;39.10;;;;;;491677;240;1202;-53
2021/01/01 08:00:23;;;;;;;;;;;19.00;39.10;;;;;;491802;240;1063;-52
2021/01/01 08:02:24;;;;;;;;;;;19.00;39.20;;;;;;491621;240;1261;-53
2021/01/01 08:04:25;;;;;;;;;;;18.90;39.20;;;;;;491695;240;1155;-53
2021/01/01 08:06:27;;;;;;;;;;;18.90;39.30;;;;;;492071;240;1193;-52
2021/01/01 08:08:28;;;;;;;;;;;18.90;39.30;;;;;;491796;240;1195;-53
2021/01/01 08:10:29;;;;;;;;;;;18.80;38.10;;;;;;491845;240;1045;-53
2021/01/01 08:12:31;;;;;;;;;;;18.80;39.40;;;;;;491735;240;1246;-53
2021/01/01 08:14:32;;;;;;;;;;;18.80;39.40;;;;;;491649;240;2148;-53
2021/01/01 08:16:33;;;;;;;;;;;18.80;39.40;;;;;;491950;240;1125;-53
2021/01/01 08:18:34;;;;;;;;;;;18.80;39.50;;;;;;491792;240;1133;-53
2021/01/01 08:20:36;;;;;;;;;;;18.70;39.50;;;;;;491815;240;1018;-53
2021/01/01 08:22:37;;;;;;;;;;;18.70;39.50;;;;;;491710;240;1119;-53
2021/01/01 08:24:38;;;;;;;;;;;18.70;39.60;;;;;;491815;240;1230;-53
2021/01/01 08:26:39;;;;;;;;;;;18.60;39.60;;;;;;491618;240;1237;-53
2021/01/01 08:28:41;;;;;;;;;;;18.60;39.60;;;;;;491734;240;1098;-53
2021/01/01 08:30:42;;;;;;;;;;;18.60;39.60;;;;;;491647;240;1072;-53
2021/01/01 08:32:43;;;;;;;;;;;18.60;39.70;;;;;;491622;240;1407;-52
2021/01/01 08:34:45;;;;;;;;;;;18.60;39.70;;;;;;491704;240;2172;-53
2021/01/01 08:36:46;;;;;;;;;;;18.50;38.40;;;;;;491916;240;1606;-53
2021/01/01 08:38:47;;;;;;;;;;;18.50;39.70;;;;;;491984;240;1071;-53
2021/01/01 08:40:49;;;;;;;;;;;18.50;39.70;;;;;;491619;240;1238;-53
2021/01/01 08:42:50;;;;;;;;;;;18.50;39.70;;;;;;491894;240;1110;-53
2021/01/01 08:44:51;;;;;;;;;;;18.50;39.80;;;;;;491642;240;1089;-53
2021/01/01 08:46:52;;;;;;;;;;;18.50;39.80;;;;;;491857;240;1105;-53
2021/01/01 08:48:54;;;;;;;;;;;18.50;39.80;;;;;;491858;240;1207;-53
2021/01/01 08:50:55;;;;;;;;;;;18.40;39.80;;;;;;491940;240;1012;-53
2021/01/01 08:52:56;;;;;;;;;;;18.40;39.80;;;;;;491798;240;1339;-53
2021/01/01 08:54:57;;;;;;;;;;;18.40;39.80;;;;;;491619;240;2183;-53
2021/01/01 08:56:59;;;;;;;;;;;18.40;39.80;;;;;;491748;240;1049;-53
2021/01/01 08:59:00;;;;;;;;;;;18.40;39.90;;;;;;491678;240;1271;-53
2021/01/01 09:01:01;;;;;;;;;;;18.40;39.90;;;;;;491732;240;1081;-53
2021/01/01 09:03:03;;;;;;;;;;;18.40;38.60;;;;;;491752;240;1056;-53
2021/01/01 09:05:04;;;;;;;;;;;18.40;39.90;;;;;;491689;240;1201;-53
2021/01/01 09:07:05;;;;;;;;;;;18.40;39.90;;;;;;491662;240;1461;-53
2021/01/01 09:09:06;;;;;;;;;;;18.40;39.90;;;;;;491660;240;1031;-53
2021/01/01 09:11:08;;;;;;;;;;;18.30;39.90;;;;;;491790;240;1120;-53
2021/01/01 09:13:09;;;;;;;;;;;18.30;39.90;;;;;;491760;240;1236;-53
2021/01/01 09:15:10;;;;;;;;;;;18.30;39.90;;;;;;491675;240;2149;-52
2021/01/01 09:17:12;;;;;;;;;;;18.30;39.90;;;;;;491653;240;1234;-53
2021/01/01 09:19:13;;;;;;;;;;;18.30;40.00;;;;;;491700;240;1231;-53
2021/01/01 09:21:14;;;;;;;;;;;18.30;40.00;;;;;;491663;240;1131;-53
2021/01/01 09:23:16;;;;;;;;;;;18.30;39.90;;;;;;491618;240;1205;-53
2021/01/01 09:25:17;;;;;;;;;;;18.30;40.00;;;;;;492018;240;1043;-53
2021/01/01 09:27:18;;;;;;;;;;;18.30;40.00;;;;;;491682;240;1330;-53
2021/01/01 09:29:20;;;;;;;;;;;18.20;39.90;;;;;;492170;240;1097;-53
2021/01/01 09:31:21;;;;;;;;;;;18.20;39.90;;;;;;491656;240;1212;-53
2021/01/01 09:33:22;;;;;;;;;;;18.20;39.90;;;;;;491683;240;1191;-52
2021/01/01 09:35:24;;;;;;;;;;;18.20;39.90;;;;;;491707;240;2160;-53
2021/01/01 09:37:25;;;;;;;;;;;18.20;39.90;;;;;;491572;240;1337;-52
2021/01/01 09:39:26;;;;;;;;;;;18.20;38.60;;;;;;492147;240;1357;-53
2021/01/01 09:41:27;;;;;;;;;;;18.20;40.00;;;;;;491819;240;1044;-52
2021/01/01 09:43:29;;;;;;;;;;;18.20;40.00;;;;;;491868;240;1130;-53
2021/01/01 09:45:30;;;;;;;;;;;18.20;39.80;;;;;;491660;240;1013;-53
2021/01/01 09:47:31;;;;;;;;;;;18.20;39.70;;;;;;491782;240;1070;-53
2021/01/01 09:49:32;;;;;;;;;;;18.30;39.70;;;;;;491678;240;1066;-53
2021/01/01 09:51:34;;;;;;;;;;;18.30;39.60;;;;;;491713;240;1245;-53
2021/01/01 09:53:35;;;;;;;;;;;18.30;39.60;;;;;;491851;240;1078;-53
2021/01/01 09:55:36;;;;;;;;;;;18.30;39.50;;;;;;491613;240;2192;-53
2021/01/01 09:57:38;;;;;;;;;;;18.40;39.50;;;;;;491740;240;947;-53
2021/01/01 09:59:40;;;;;;;;;;;18.40;39.50;;;;;;491891;240;1051;-53
2021/01/01 10:01:41;;;;;;;;;;;18.40;39.40;;;;;;491705;240;1012;-53
2021/01/01 10:03:42;;;;;;;;;;;18.40;39.30;;;;;;491676;240;1104;-53
2021/01/01 10:05:43;;;;;;;;;;;18.50;39.40;;;;;;491747;240;1160;-53
2021/01/01 10:07:45;;;;;;;;;;;18.50;39.30;;;;;;492083;240;933;-53
2021/01/01 10:09:46;;;;;;;;;;;18.50;39.30;;;;;;491790;240;1093;-53
2021/01/01 10:11:47;;;;;;;;;;;18.50;39.20;;;;;;491690;240;1045;-53
2021/01/01 10:13:48;;;;;;;;;;;18.50;39.20;;;;;;491677;240;1261;-53
2021/01/01 10:15:50;;;;;;;;;;;18.60;39.20;;;;;;491649;240;2136;-53
2021/01/01 10:17:51;;;;;;;;;;;18.60;39.20;;;;;;491641;240;1056;-53
2021/01/01 10:19:52;;;;;;;;;;;18.60;39.10;;;;;;491740;240;1153;-53
2021/01/01 10:21:54;;;;;;;;;;;18.60;39.10;;;;;;491723;240;1271;-53
2021/01/01 10:23:55;;;;;;;;;;;18.70;39.10;;;;;;491999;240;1076;-53
2021/01/01 10:25:56;;;;;;;;;;;18.70;39.00;;;;;;491638;240;1526;-53
2021/01/01 10:27:58;;;;;;;;;;;18.70;39.00;;;;;;491602;240;1101;-53
2021/01/01 10:29:59;;;;;;;;;;;18.70;38.90;;;;;;491630;240;1231;-53
2021/01/01 10:32:00;;;;;;;;;;;18.70;38.90;;;;;;491648;240;1162;-53
2021/01/01 10:34:02;;;;;;;;;;;18.70;38.90;;;;;;491651;240;1157;-53
2021/01/01 10:36:03;;;;;;;;;;;18.80;38.90;;;;;;491663;240;2152;-53
2021/01/01 10:38:04;;;;;;;;;;;18.80;38.90;;;;;;491597;240;1183;-53
2021/01/01 10:40:05;;;;;;;;;;;18.80;38.80;;;;;;491770;240;930;-53
2021/01/01 10:42:07;;;;;;;;;;;18.80;38.80;;;;;;491606;240;1306;-53
2021/01/01 10:44:08;;;;;;;;;;;18.80;38.80;;;;;;491608;240;1374;-53
2021/01/01 10:46:09;;;;;;;;;;;18.80;38.80;;;;;;491543;240;1205;-52
2021/01/01 10:48:11;;;;;;;;;;;18.90;38.80;;;;;;491624;240;1202;-53
2021/01/01 10:50:12;;;;;;;;;;;18.90;38.70;;;;;;491670;240;1228;-53
2021/01/01 10:52:13;;;;;;;;;;;18.90;38.70;;;;;;491745;240;1160;-53
2021/01/01 10:54:14;;;;;;;;;;;18.90;38.60;;;;;;491984;240;1134;-53
2021/01/01 10:56:16;;;;;;;;;;;18.90;38.60;;;;;;491639;240;2168;-53
2021/01/01 10:58:23;;;;;;;;;;;18.90;38.60;;;;;;491650;240;1324;-53
2021/01/01 11:00:19;;;;;;;;;;;18.90;38.50;;;;;;491761;241;1316;-53
2021/01/01 11:02:20;;;;;;;;;;;19.00;38.60;;;;;;491816;240;1287;-53
2021/01/01 11:04:21;;;;;;;;;;;19.00;38.60;;;;;;491758;240;1055;-53
2021/01/01 11:06:23;;;;;;;;;;;19.00;38.50;;;;;;491711;240;1179;-53
2021/01/01 11:08:24;;;;;;;;;;;19.00;38.50;;;;;;491670;240;1134;-53
2021/01/01 11:10:25;;;;;;;;;;;19.00;38.50;;;;;;491616;240;1395;-53
2021/01/01 11:12:28;;;;;;;;;;;19.00;38.50;;;;;;491649;240;1409;-53
2021/01/01 11:14:42;;;;;;;;;;;19.00;38.40;;;;;;491905;241;2142;-53
2021/01/01 12:19:54;;;;;;;;;;;19.40;38.00;;;;;;491711;242;1167;-53
2021/01/01 12:22:05;;;;;;;;;;;19.40;38.00;;;;;;491456;242;1384;-53
2021/01/01 12:24:19;;;;;;;;;;;19.40;38.00;;;;;;491737;241;1534;-53
2021/01/01 12:26:08;;;;;;;;;;;19.40;38.00;;;;;;491485;242;2052;-53
2021/01/01 12:28:09;;;;;;;;;;;19.40;38.00;;;;;;491620;240;1411;-53
2021/01/01 12:30:10;;;;;;;;;;;19.40;38.00;;;;;;491711;240;1057;-53
2021/01/01 12:32:12;;;;;;;;;;;19.40;37.90;;;;;;491594;240;1214;-53
2021/01/01 12:34:13;;;;;;;;;;;19.40;38.00;;;;;;491756;240;1244;-53
2021/01/01 12:36:14;;;;;;;;;;;19.40;38.00;;;;;;491719;240;2183;-53
2021/01/01 12:38:16;;;;;;;;;;;19.40;38.00;;;;;;491703;240;949;-53
2021/01/01 12:40:17;;;;;;;;;;;19.40;37.90;;;;;;491631;240;1031;-53
2021/01/01 12:42:19;;;;;;;;;;;19.40;37.90;;;;;;491648;240;1135;-53
2021/01/01 12:44:20;;;;;;;;;;;19.40;37.90;;;;;;491688;240;1074;-53
2021/01/01 12:46:21;;;;;;;;;;;19.50;36.60;;;;;;491623;240;1067;-53
2021/01/01 12:48:22;;;;;;;;;;;19.50;38.00;;;;;;491640;240;997;-53
2021/01/01 12:50:24;;;;;;;;;;;19.50;37.90;;;;;;491817;240;1148;-53
2021/01/01 12:52:25;;;;;;;;;;;19.50;37.90;;;;;;491713;240;1157;-53
2021/01/01 12:54:26;;;;;;;;;;;19.50;37.90;;;;;;491675;240;1574;-52
2021/01/01 12:56:28;;;;;;;;;;;19.50;37.90;;;;;;491844;240;2172;-53
2021/01/01 12:58:29;;;;;;;;;;;19.50;37.90;;;;;;491687;240;1118;-53
2021/01/01 13:00:30;;;;;;;;;;;19.50;37.90;;;;;;491604;240;1345;-53